• Join FlightAware (Why Join?)
  • Login
  • US Flag 
07:41PM EDT


 

Airport Tracker/Info


-or-


 

Live Flight TrackerFlight Track Log ✈ N36PE ✈ 03-May-2012 ✈ KGIF - KJZP

Flight Track Log - Related Links

Times and Time Zones

All times are in EDT time to prevent confusion due to time zone crossing. See the N36PE flight status page for this flight to view local times or setup timezone preferences in your user account.

Time Position Orientation Groundspeed Altitude Reporting Facility
EDT Latitude Longitude Course Direction KTS MPH feet Rate Location/Type
07:23PM 28.1227 -81.7687 350° North  Level FlightAware Approximate
07:24PM 28.1695 -81.7848 352° North  Level FlightAware Approximate
07:25PM 28.2151 -81.8050 356° North  Level FlightAware Approximate
07:26PM 28.2624 -81.8192 North  Level FlightAware Approximate
07:27PM 28.3097 -81.8340 15° North  Level FlightAware Approximate
07:28PM 28.3667 -81.8167 336° Northwest 125 144 9,500  Level Orlando TRACON
07:29PM 28.4000 -81.8333 360° North 129 148 10,300 840 Climbing Orlando TRACON
07:30PM 28.4333 -81.8333 360° North 131 151 11,200 720 Climbing Orlando TRACON
07:31PM 28.4667 -81.8333 360° North 128 147 11,800 420 Climbing Orlando TRACON
07:32PM 28.5000 -81.8333 331° Northwest 157 181 12,100 120 Climbing Orlando TRACON
07:33PM 28.5675 -81.8761 328° Northwest 183 211 12,100  Level Jacksonville Center
07:34PM 28.6136 -81.9089 330° Northwest 194 223 12,100  Level Jacksonville Center
07:35PM 28.6597 -81.9392 327° Northwest 194 223 12,100  Level Jacksonville Center
07:36PM 28.7039 -81.9719 333° Northwest 189 217 12,100  Level Jacksonville Center
07:37PM 28.7519 -81.9997 329° Northwest 189 217 12,100  Level Jacksonville Center
07:38PM 28.7961 -82.0303 332° Northwest 189 217 12,100  Level Jacksonville Center
07:39PM 28.8422 -82.0583 330° Northwest 189 217 12,100  Level Jacksonville Center
07:40PM 28.8883 -82.0886 328° Northwest 189 217 12,100  Level Jacksonville Center
07:41PM 28.9344 -82.1214 332° Northwest 189 217 12,100  Level Jacksonville Center
07:42PM 28.9806 -82.1497 329° Northwest 189 217 12,100  Level Jacksonville Center
07:43PM 29.0244 -82.1803 328° Northwest 189 217 12,100  Level Jacksonville Center
07:44PM 29.0706 -82.2131 332° Northwest 189 217 12,100  Level Jacksonville Center
07:45PM 29.1167 -82.2414 342° North 189 217 12,100  Level Jacksonville Center
07:46PM 29.1669 -82.2600 339° North 183 211 12,100  Level Jacksonville Center
07:47PM 29.2150 -82.2811 342° North 183 211 12,100  Level Jacksonville Center
07:48PM 29.2650 -82.2997 340° North 183 211 12,100  Level Jacksonville Center
07:49PM 29.3111 -82.3186 340° North 183 211 12,100  Level Jacksonville Center
07:50PM 29.3614 -82.3397 344° North 183 211 12,100  Level Jacksonville Center
07:51PM 29.4114 -82.3561 340° North 189 217 12,100  Level Jacksonville Center
07:52PM 29.4639 -82.3775 342° North 189 217 12,100  Level Jacksonville Center
07:53PM 29.5139 -82.3961 344° North 189 217 12,100  Level Jacksonville Center
07:54PM 29.5642 -82.4125 342° North 189 217 12,100  Level Jacksonville Center
07:55PM 29.6142 -82.4317 341° North 189 217 12,100  Level Jacksonville Center
07:56PM 29.6667 -82.4528 343° North 189 217 12,100  Level Jacksonville Center
07:57PM 29.7189 -82.4717 342° North 189 217 12,100  Level Jacksonville Center
07:58PM 29.7689 -82.4906 341° North 189 217 12,100  Level Jacksonville Center
07:59PM 29.8214 -82.5119 342° North 189 217 12,200  Climbing Jacksonville Center
08:00PM 29.8714 -82.5308 342° North 189 217 12,200  Level Jacksonville Center
08:01PM 29.9217 -82.5500 342° North 189 217 12,200  Level Jacksonville Center
08:02PM 29.9717 -82.5689 342° North 189 217 12,200  Level Jacksonville Center
08:03PM 30.0219 -82.5881 338° Northwest 189 217 12,200  Level Jacksonville Center
08:04PM 30.0678 -82.6094 343° North 189 217 12,200  Level Jacksonville Center
08:05PM 30.1200 -82.6283 344° North 189 217 12,200  Level Jacksonville Center
08:06PM 30.1764 -82.6475 345° North 189 217 12,200  Level Jacksonville Center
08:07PM 30.2286 -82.6642 345° North 189 217 12,200  Level Jacksonville Center
08:08PM 30.2808 -82.6808 342° North 189 217 12,200  Level Jacksonville Center
08:09PM 30.3311 -82.7000 340° North 189 217 12,200  Level Jacksonville Center
08:10PM 30.3833 -82.7217 342° North 189 217 12,200 -180 Level Jacksonville Center
08:11PM 30.4083 -82.7311 341° North 194 223 12,000 -120 Descending Jacksonville Center
08:11PM 30.4333 -82.7408 338° Northwest 189 217 12,100 60 Climbing Jacksonville Center
08:12PM 30.4586 -82.7528 345° North 190 219 12,100  Level Jacksonville Center
08:12PM 30.4814 -82.7600 339° North 189 217 12,100  Level Jacksonville Center
08:13PM 30.5086 -82.7719 338° Northwest 191 220 12,100  Level Jacksonville Center
08:14PM 30.5589 -82.7961 341° North 192 221 12,100  Level Jacksonville Center
08:15PM 30.6069 -82.8153 339° North 190 219 12,100  Level Jacksonville Center
08:16PM 30.6611 -82.8394 338° Northwest 192 221 12,100  Level Jacksonville Center
08:17PM 30.7069 -82.8611 343° North 192 221 12,100  Level Jacksonville Center
08:18PM 30.7614 -82.8806 339° North 188 216 12,100  Level Jacksonville Center
08:19PM 30.8053 -82.8997 340° North 186 214 12,100  Level Jacksonville Center
08:20PM 30.8575 -82.9217 342° North 184 212 12,100  Level Jacksonville Center
08:21PM 30.9097 -82.9411 340° North 189 217 12,100  Level Jacksonville Center
08:22PM 30.9953 -82.9775 340° North 196 226 12,100  Level Jacksonville Center
08:23PM 31.0453 -82.9992 339° North 191 220 12,100  Level Jacksonville Center
08:24PM 31.0933 -83.0211 336° Northwest 186 214 12,200  Climbing Jacksonville Center
08:25PM 31.1456 -83.0481 341° North 186 214 12,200  Level Jacksonville Center
08:26PM 31.1933 -83.0675 336° Northwest 186 214 12,200  Level Jacksonville Center
08:27PM 31.2414 -83.0919 339° North 186 214 12,200  Level Jacksonville Center
08:28PM 31.2894 -83.1139 339° North 186 214 12,200  Level Jacksonville Center
08:29PM 31.3394 -83.1358 338° Northwest 186 214 12,200 -60 Level Jacksonville Center
08:30PM 31.3853 -83.1578 339° North 186 214 12,100 -60 Descending Jacksonville Center
08:31PM 31.4356 -83.1800 339° North 193 222 12,100  Level Jacksonville Center
08:32PM 31.4833 -83.2019 339° North 188 216 12,100  Level Jacksonville Center
08:33PM 31.5272 -83.2217 339° North 188 216 12,100  Level Jacksonville Center
08:34PM 31.5753 -83.2436 341° North 188 216 12,100  Level Jacksonville Center
08:35PM 31.6253 -83.2633 339° North 188 216 12,100  Level Jacksonville Center
08:36PM 31.6753 -83.2856 342° North 188 216 12,100  Level Jacksonville Center
08:37PM 31.7275 -83.3053 343° North 188 216 12,100  Level Jacksonville Center
08:38PM 31.7775 -83.3228 342° North 188 216 12,100 -60 Level Jacksonville Center
08:41PM 31.9014 -83.3711 340° North 196 226 12,000 -60 Descending Atlanta Center
08:42PM 31.9517 -83.3928 341° North 191 220 12,000  Level Atlanta Center
08:43PM 32.0039 -83.4144 340° North 191 220 12,000  Level Atlanta Center
08:44PM 32.0539 -83.4361 340° North 191 220 12,000  Level Atlanta Center
08:45PM 32.1042 -83.4578 342° North 191 220 12,000  Level Atlanta Center
08:46PM 32.1544 -83.4769 337° Northwest 191 220 12,000  Level Atlanta Center
08:47PM 32.2025 -83.5014 340° North 191 220 12,000  Level Atlanta Center
08:48PM 32.2528 -83.5231 342° North 191 220 12,000  Level Atlanta Center
08:49PM 32.3028 -83.5425 337° Northwest 191 220 12,000 -240 Level Atlanta Center
08:50PM 32.3553 -83.5692 340° North 191 220 11,600 -540 Descending Atlanta Center
08:51PM 32.4117 -83.5936 340° North 197 227 11,000 -600 Descending Atlanta Center
08:52PM 32.4681 -83.6178 344° North 203 234 10,400 -540 Descending Atlanta Center
08:53PM 32.5244 -83.6372 360° North 208 239 10,000 -240 Descending Atlanta Center
08:54PM 32.5808 -83.6369 356° North 202 232 10,000  Level Atlanta Center
08:55PM 32.6350 -83.6417 356° North 197 227 10,000  Level Atlanta Center
08:56PM 32.6914 -83.6464 349° North 197 227 10,000  Level Atlanta Center
08:57PM 32.7458 -83.6586 358° North 197 227 10,000 -420 Level Atlanta Center
08:58PM 32.8022 -83.6608 352° North 202 232 9,200 -780 Descending Atlanta Center
09:00PM 32.9333 -83.6833 353° North 198 228 7,500 -360 Descending Atlanta TRACON
09:07PM 33.2833 -83.7333 349° North 169 194 6,000 -180 Descending Atlanta TRACON
09:10PM 33.4333 -83.7667 360° North 169 194 6,100  Climbing Atlanta TRACON
09:11PM 33.4667 -83.7667 360° North 169 194 6,100  Level Atlanta TRACON
09:12PM 33.5167 -83.7667 360° North 167 192 6,100  Level Atlanta TRACON
09:13PM 33.5667 -83.7667 360° North 164 189 6,100  Level Atlanta TRACON
09:14PM 33.6000 -83.7667 North 162 186 6,100  Level Atlanta TRACON
09:16PM 33.7000 -83.7500 360° North 164 189 6,100  Level Atlanta TRACON
09:17PM 33.7500 -83.7500 23° Northeast 159 183 6,100  Level Atlanta TRACON
09:18PM 33.7833 -83.7333 331° Northwest 165 190 6,100  Level Atlanta TRACON
09:19PM 33.8333 -83.7667 337° Northwest 163 188 6,100  Level Atlanta TRACON
09:20PM 33.8667 -83.7833 326° Northwest 164 189 6,100  Level Atlanta TRACON
09:22PM 33.9500 -83.8500 320° Northwest 167 192 6,100  Level Atlanta TRACON
09:23PM 33.9833 -83.8833 320° Northwest 166 191 6,100  Level Atlanta TRACON
09:24PM 34.0167 -83.9167 309° West 166 191 6,100  Level Atlanta TRACON
09:25PM 34.0500 -83.9667 320° Northwest 164 189 6,100  Level Atlanta TRACON
09:26PM 34.0833 -84.0000 320° Northwest 167 192 6,100  Level Atlanta TRACON
09:28PM 34.1500 -84.0667 309° West 172 198 6,100  Level Atlanta TRACON
09:29PM 34.1833 -84.1167 320° Northwest 174 200 6,100  Level Atlanta TRACON
09:30PM 34.2167 -84.1500 320° Northwest 165 190 6,100  Level Atlanta TRACON
09:31PM 34.2500 -84.1833 320° Northwest 166 191 6,100  Level Atlanta TRACON
09:32PM 34.2833 -84.2167 314° West 164 189 6,100  Level Atlanta TRACON
09:33PM 34.3117 -84.2525 310° West 144 166 6,100  Level Atlanta Center
09:41PM 34.4500 -84.4500 300° West  Level FlightAware Approximate
09:42PM 34.4747 -84.5014 120° Southeast  Level Estimated
09:43PM 34.4500 -84.4500 300° West  Level FlightAware Approximate
09:44PM 34.4747 -84.5014 120° Southeast  Level Estimated
09:45PM 34.4500 -84.4500 300° West  Level FlightAware Approximate
09:46PM 34.4747 -84.5014 120° Southeast  Level Estimated
09:47PM 34.4500 -84.4500 300° West  Level FlightAware Approximate
09:48PM 34.4747 -84.5014 120° Southeast  Level Estimated
09:49PM 34.4500 -84.4500 300° West  Level FlightAware Approximate
09:50PM 34.4747 -84.5014 120° Southeast  Level Estimated
09:51PM 34.4500 -84.4500 300° West  Level FlightAware Approximate
09:52PM 34.4747 -84.5014 120° Southeast  Level Estimated
09:53PM 34.4500 -84.4500 300° West  Level FlightAware Approximate
09:54PM 34.4747 -84.5014 120° Southeast  Level Estimated
09:55PM 34.4500 -84.4500 300° West  Level FlightAware Approximate
09:56PM 34.4747 -84.5014 120° Southeast  Level Estimated
09:57PM 34.4500 -84.4500 300° West  Level FlightAware Approximate
09:58PM 34.4747 -84.5014 300° West  Level Estimated